sensor_id;sensor_type;location;lat;lon;timestamp;temperature;humidity
9901;DHT22;4989;48.772;9.154;2023-06-10T00:03:04;23.90;57.50
9901;DHT22;4989;48.772;9.154;2023-06-10T00:08:06;24.40;60.40
9901;DHT22;4989;48.772;9.154;2023-06-10T00:13:09;24.60;58.60
9901;DHT22;4989;48.772;9.154;2023-06-10T00:18:13;24.60;58.50
9901;DHT22;4989;48.772;9.154;2023-06-10T00:23:15;24.50;58.20
9901;DHT22;4989;48.772;9.154;2023-06-10T00:28:18;23.90;56.30
9901;DHT22;4989;48.772;9.154;2023-06-10T00:33:20;24.00;58.00
9901;DHT22;4989;48.772;9.154;2023-06-10T00:38:22;24.10;57.60
9901;DHT22;4989;48.772;9.154;2023-06-10T00:43:25;24.10;56.60
9901;DHT22;4989;48.772;9.154;2023-06-10T00:48:27;23.90;56.60
9901;DHT22;4989;48.772;9.154;2023-06-10T00:53:32;23.40;58.20
9901;DHT22;4989;48.772;9.154;2023-06-10T00:58:35;23.80;61.40
9901;DHT22;4989;48.772;9.154;2023-06-10T01:03:39;23.90;58.10
9901;DHT22;4989;48.772;9.154;2023-06-10T01:08:53;23.30;58.30
9901;DHT22;4989;48.772;9.154;2023-06-10T01:13:58;22.90;59.30
9901;DHT22;4989;48.772;9.154;2023-06-10T01:19:03;23.40;59.10
9901;DHT22;4989;48.772;9.154;2023-06-10T01:24:05;23.60;61.30
9901;DHT22;4989;48.772;9.154;2023-06-10T01:29:31;23.70;60.60
9901;DHT22;4989;48.772;9.154;2023-06-10T01:34:42;23.90;61.80
9901;DHT22;4989;48.772;9.154;2023-06-10T01:39:48;23.90;61.00
9901;DHT22;4989;48.772;9.154;2023-06-10T01:44:51;23.70;58.90
9901;DHT22;4989;48.772;9.154;2023-06-10T01:49:53;23.40;58.80
9901;DHT22;4989;48.772;9.154;2023-06-10T01:54:56;23.60;61.40
9901;DHT22;4989;48.772;9.154;2023-06-10T01:59:58;23.60;59.20
9901;DHT22;4989;48.772;9.154;2023-06-10T02:05:00;23.70;60.50
9901;DHT22;4989;48.772;9.154;2023-06-10T02:10:04;23.70;59.20
9901;DHT22;4989;48.772;9.154;2023-06-10T02:15:06;23.60;59.80
9901;DHT22;4989;48.772;9.154;2023-06-10T02:20:10;23.70;60.70
9901;DHT22;4989;48.772;9.154;2023-06-10T02:25:12;23.50;61.30
9901;DHT22;4989;48.772;9.154;2023-06-10T02:30:15;23.40;59.20
9901;DHT22;4989;48.772;9.154;2023-06-10T02:35:17;23.20;59.90
9901;DHT22;4989;48.772;9.154;2023-06-10T02:40:20;23.40;61.10
9901;DHT22;4989;48.772;9.154;2023-06-10T02:45:22;23.50;62.40
9901;DHT22;4989;48.772;9.154;2023-06-10T02:50:25;23.50;62.90
9901;DHT22;4989;48.772;9.154;2023-06-10T02:55:42;23.40;61.50
9901;DHT22;4989;48.772;9.154;2023-06-10T03:00:47;23.50;61.60
9901;DHT22;4989;48.772;9.154;2023-06-10T03:05:50;23.50;59.40
9901;DHT22;4989;48.772;9.154;2023-06-10T03:10:54;22.90;58.80
9901;DHT22;4989;48.772;9.154;2023-06-10T03:15:57;22.90;62.20
9901;DHT22;4989;48.772;9.154;2023-06-10T03:21:00;23.10;59.00
9901;DHT22;4989;48.772;9.154;2023-06-10T03:26:04;23.00;60.00
9901;DHT22;4989;48.772;9.154;2023-06-10T03:31:08;23.20;63.10
9901;DHT22;4989;48.772;9.154;2023-06-10T03:36:12;23.40;59.00
9901;DHT22;4989;48.772;9.154;2023-06-10T03:41:14;23.40;61.30
9901;DHT22;4989;48.772;9.154;2023-06-10T03:46:18;23.20;59.50
9901;DHT22;4989;48.772;9.154;2023-06-10T03:51:21;23.00;59.70
9901;DHT22;4989;48.772;9.154;2023-06-10T03:56:25;22.80;59.80
9901;DHT22;4989;48.772;9.154;2023-06-10T04:01:28;23.10;63.30
9901;DHT22;4989;48.772;9.154;2023-06-10T04:06:30;23.10;61.50
9901;DHT22;4989;48.772;9.154;2023-06-10T04:11:33;23.10;59.90
9901;DHT22;4989;48.772;9.154;2023-06-10T04:16:36;23.10;62.80
9901;DHT22;4989;48.772;9.154;2023-06-10T04:21:39;23.30;62.90
9901;DHT22;4989;48.772;9.154;2023-06-10T04:26:41;23.40;63.10
9901;DHT22;4989;48.772;9.154;2023-06-10T04:31:43;23.30;60.10
9901;DHT22;4989;48.772;9.154;2023-06-10T04:36:48;23.10;60.30
9901;DHT22;4989;48.772;9.154;2023-06-10T04:41:50;22.80;59.80
9901;DHT22;4989;48.772;9.154;2023-06-10T04:46:53;22.80;60.20
9901;DHT22;4989;48.772;9.154;2023-06-10T04:51:57;23.10;63.30
9901;DHT22;4989;48.772;9.154;2023-06-10T04:57:01;23.10;60.00
9901;DHT22;4989;48.772;9.154;2023-06-10T05:02:04;22.90;60.50
9901;DHT22;4989;48.772;9.154;2023-06-10T05:07:07;23.00;60.60
9901;DHT22;4989;48.772;9.154;2023-06-10T05:12:09;23.00;60.30
9901;DHT22;4989;48.772;9.154;2023-06-10T05:17:11;23.10;59.70
9901;DHT22;4989;48.772;9.154;2023-06-10T05:22:14;23.20;62.60
9901;DHT22;4989;48.772;9.154;2023-06-10T05:27:18;23.30;62.50
9901;DHT22;4989;48.772;9.154;2023-06-10T05:32:20;23.50;62.90
9901;DHT22;4989;48.772;9.154;2023-06-10T05:37:22;23.60;62.30
9901;DHT22;4989;48.772;9.154;2023-06-10T05:42:24;23.70;63.10
9901;DHT22;4989;48.772;9.154;2023-06-10T05:47:27;23.80;62.60
9901;DHT22;4989;48.772;9.154;2023-06-10T05:52:30;23.80;62.70
9901;DHT22;4989;48.772;9.154;2023-06-10T05:57:32;23.90;62.60
9901;DHT22;4989;48.772;9.154;2023-06-10T06:02:35;24.00;61.50
9901;DHT22;4989;48.772;9.154;2023-06-10T06:07:37;24.00;62.40
9901;DHT22;4989;48.772;9.154;2023-06-10T06:12:39;24.00;62.20
9901;DHT22;4989;48.772;9.154;2023-06-10T06:17:42;24.10;61.60
9901;DHT22;4989;48.772;9.154;2023-06-10T06:22:44;23.80;61.50
9901;DHT22;4989;48.772;9.154;2023-06-10T06:27:46;24.00;62.70
9901;DHT22;4989;48.772;9.154;2023-06-10T06:32:48;24.10;62.50
9901;DHT22;4989;48.772;9.154;2023-06-10T06:37:51;24.20;63.10
9901;DHT22;4989;48.772;9.154;2023-06-10T06:42:58;24.30;61.40
9901;DHT22;4989;48.772;9.154;2023-06-10T06:48:11;24.40;59.60
9901;DHT22;4989;48.772;9.154;2023-06-10T06:53:14;24.30;61.50
9901;DHT22;4989;48.772;9.154;2023-06-10T06:58:16;24.50;61.50
9901;DHT22;4989;48.772;9.154;2023-06-10T07:03:18;24.70;59.40
9901;DHT22;4989;48.772;9.154;2023-06-10T07:08:20;24.90;60.80
9901;DHT22;4989;48.772;9.154;2023-06-10T07:13:23;24.90;60.30
9901;DHT22;4989;48.772;9.154;2023-06-10T07:18:28;25.10;60.20
9901;DHT22;4989;48.772;9.154;2023-06-10T07:23:30;25.10;58.40
9901;DHT22;4989;48.772;9.154;2023-06-10T07:28:33;25.20;57.80
9901;DHT22;4989;48.772;9.154;2023-06-10T07:33:35;25.10;58.10
9901;DHT22;4989;48.772;9.154;2023-06-10T07:38:38;24.90;59.60
9901;DHT22;4989;48.772;9.154;2023-06-10T07:43:41;25.40;59.40
9901;DHT22;4989;48.772;9.154;2023-06-10T07:48:43;25.60;59.10
9901;DHT22;4989;48.772;9.154;2023-06-10T07:53:45;26.00;58.80
9901;DHT22;4989;48.772;9.154;2023-06-10T07:58:47;26.00;58.90
9901;DHT22;4989;48.772;9.154;2023-06-10T08:03:50;26.40;58.40
9901;DHT22;4989;48.772;9.154;2023-06-10T08:08:52;26.30;58.20
9901;DHT22;4989;48.772;9.154;2023-06-10T08:13:54;26.70;57.30
9901;DHT22;4989;48.772;9.154;2023-06-10T08:18:57;26.80;57.00
9901;DHT22;4989;48.772;9.154;2023-06-10T08:24:00;27.00;56.80
9901;DHT22;4989;48.772;9.154;2023-06-10T08:29:02;26.90;56.50
9901;DHT22;4989;48.772;9.154;2023-06-10T08:34:04;27.20;56.40
9901;DHT22;4989;48.772;9.154;2023-06-10T08:39:06;27.80;53.40
9901;DHT22;4989;48.772;9.154;2023-06-10T08:44:27;28.00;54.20
9901;DHT22;4989;48.772;9.154;2023-06-10T08:49:34;28.30;53.40
9901;DHT22;4989;48.772;9.154;2023-06-10T09:00:02;28.60;54.20
9901;DHT22;4989;48.772;9.154;2023-06-10T09:05:05;28.50;51.10
9901;DHT22;4989;48.772;9.154;2023-06-10T09:10:09;28.90;52.00
9901;DHT22;4989;48.772;9.154;2023-06-10T09:15:13;29.50;52.00
9901;DHT22;4989;48.772;9.154;2023-06-10T09:20:16;29.30;51.90
9901;DHT22;4989;48.772;9.154;2023-06-10T09:25:19;29.60;50.90
9901;DHT22;4989;48.772;9.154;2023-06-10T09:30:35;29.60;50.80
9901;DHT22;4989;48.772;9.154;2023-06-10T09:35:47;29.70;51.30
9901;DHT22;4989;48.772;9.154;2023-06-10T09:40:52;29.90;51.30
9901;DHT22;4989;48.772;9.154;2023-06-10T09:45:56;29.30;51.90
9901;DHT22;4989;48.772;9.154;2023-06-10T09:50:59;29.90;50.70
9901;DHT22;4989;48.772;9.154;2023-06-10T09:56:01;30.60;48.60
9901;DHT22;4989;48.772;9.154;2023-06-10T10:01:09;31.10;49.40
9901;DHT22;4989;48.772;9.154;2023-06-10T10:06:15;31.50;48.20
9901;DHT22;4989;48.772;9.154;2023-06-10T10:11:20;32.10;47.30
9901;DHT22;4989;48.772;9.154;2023-06-10T10:16:35;31.90;47.50
9901;DHT22;4989;48.772;9.154;2023-06-10T10:21:53;31.80;48.20
9901;DHT22;4989;48.772;9.154;2023-06-10T10:26:58;31.60;48.10
9901;DHT22;4989;48.772;9.154;2023-06-10T10:32:05;32.40;47.80
9901;DHT22;4989;48.772;9.154;2023-06-10T10:37:10;31.50;48.70
9901;DHT22;4989;48.772;9.154;2023-06-10T10:42:13;32.20;48.00
9901;DHT22;4989;48.772;9.154;2023-06-10T10:47:21;32.70;46.50
9901;DHT22;4989;48.772;9.154;2023-06-10T10:52:24;33.00;45.30
9901;DHT22;4989;48.772;9.154;2023-06-10T10:57:29;33.70;43.90
9901;DHT22;4989;48.772;9.154;2023-06-10T11:02:40;34.00;43.30
9901;DHT22;4989;48.772;9.154;2023-06-10T11:07:55;33.80;45.20
9901;DHT22;4989;48.772;9.154;2023-06-10T11:12:58;33.50;45.70
9901;DHT22;4989;48.772;9.154;2023-06-10T11:28:31;33.30;45.10
9901;DHT22;4989;48.772;9.154;2023-06-10T11:33:33;33.80;46.30
9901;DHT22;4989;48.772;9.154;2023-06-10T11:38:40;34.60;44.30
9901;DHT22;4989;48.772;9.154;2023-06-10T11:43:47;35.30;43.50
9901;DHT22;4989;48.772;9.154;2023-06-10T11:48:55;34.90;44.40
9901;DHT22;4989;48.772;9.154;2023-06-10T11:53:59;34.60;44.60
9901;DHT22;4989;48.772;9.154;2023-06-10T11:59:08;35.00;44.10
9901;DHT22;4989;48.772;9.154;2023-06-10T12:04:14;34.70;44.90
9901;DHT22;4989;48.772;9.154;2023-06-10T12:14:50;32.10;47.80
9901;DHT22;4989;48.772;9.154;2023-06-10T12:19:59;32.90;46.70
9901;DHT22;4989;48.772;9.154;2023-06-10T12:25:05;33.40;46.90
9901;DHT22;4989;48.772;9.154;2023-06-10T12:30:09;34.30;44.50
9901;DHT22;4989;48.772;9.154;2023-06-10T12:35:19;33.70;45.60
9901;DHT22;4989;48.772;9.154;2023-06-10T12:40:31;32.90;46.70
9901;DHT22;4989;48.772;9.154;2023-06-10T12:50:41;31.40;48.70
9901;DHT22;4989;48.772;9.154;2023-06-10T12:55:44;31.00;48.90
9901;DHT22;4989;48.772;9.154;2023-06-10T13:00:49;30.90;49.90
9901;DHT22;4989;48.772;9.154;2023-06-10T13:05:55;31.30;49.60
9901;DHT22;4989;48.772;9.154;2023-06-10T13:10:57;32.70;47.50
9901;DHT22;4989;48.772;9.154;2023-06-10T13:16:00;32.40;48.00
9901;DHT22;4989;48.772;9.154;2023-06-10T13:21:04;31.30;49.20
9901;DHT22;4989;48.772;9.154;2023-06-10T13:26:06;30.80;49.80
9901;DHT22;4989;48.772;9.154;2023-06-10T13:31:08;30.80;49.70
9901;DHT22;4989;48.772;9.154;2023-06-10T13:36:11;30.90;49.70
9901;DHT22;4989;48.772;9.154;2023-06-10T13:41:14;31.80;46.60
9901;DHT22;4989;48.772;9.154;2023-06-10T13:46:16;33.20;45.00
9901;DHT22;4989;48.772;9.154;2023-06-10T13:51:18;33.70;45.70
9901;DHT22;4989;48.772;9.154;2023-06-10T13:56:21;33.20;45.80
9901;DHT22;4989;48.772;9.154;2023-06-10T14:01:23;32.30;46.90
9901;DHT22;4989;48.772;9.154;2023-06-10T14:06:26;31.60;48.40
9901;DHT22;4989;48.772;9.154;2023-06-10T14:11:29;31.20;49.30
9901;DHT22;4989;48.772;9.154;2023-06-10T14:16:35;30.90;49.40
9901;DHT22;4989;48.772;9.154;2023-06-10T14:21:39;32.10;47.70
9901;DHT22;4989;48.772;9.154;2023-06-10T14:26:41;32.10;48.40
9901;DHT22;4989;48.772;9.154;2023-06-10T14:31:44;31.50;48.90
9901;DHT22;4989;48.772;9.154;2023-06-10T14:36:46;31.30;49.70
9901;DHT22;4989;48.772;9.154;2023-06-10T14:41:48;31.10;47.30
9901;DHT22;4989;48.772;9.154;2023-06-10T14:46:50;31.20;48.10
9901;DHT22;4989;48.772;9.154;2023-06-10T14:51:52;30.50;51.20
9901;DHT22;4989;48.772;9.154;2023-06-10T14:56:55;30.40;51.00
9901;DHT22;4989;48.772;9.154;2023-06-10T15:01:57;30.30;48.20
9901;DHT22;4989;48.772;9.154;2023-06-10T15:07:02;31.00;46.20
9901;DHT22;4989;48.772;9.154;2023-06-10T15:12:05;31.80;46.20
9901;DHT22;4989;48.772;9.154;2023-06-10T15:17:07;31.90;45.20
9901;DHT22;4989;48.772;9.154;2023-06-10T15:22:09;31.80;46.90
9901;DHT22;4989;48.772;9.154;2023-06-10T15:27:13;31.50;48.00
9901;DHT22;4989;48.772;9.154;2023-06-10T15:32:16;31.00;49.10
9901;DHT22;4989;48.772;9.154;2023-06-10T15:37:20;30.70;50.80
9901;DHT22;4989;48.772;9.154;2023-06-10T15:42:25;30.50;49.70
9901;DHT22;4989;48.772;9.154;2023-06-10T15:47:27;30.60;50.50
9901;DHT22;4989;48.772;9.154;2023-06-10T15:52:30;30.30;50.60
9901;DHT22;4989;48.772;9.154;2023-06-10T15:57:32;30.00;51.10
9901;DHT22;4989;48.772;9.154;2023-06-10T16:02:37;30.10;48.00
9901;DHT22;4989;48.772;9.154;2023-06-10T16:07:39;30.20;51.70
9901;DHT22;4989;48.772;9.154;2023-06-10T16:12:42;29.70;51.60
9901;DHT22;4989;48.772;9.154;2023-06-10T16:17:44;29.80;50.80
9901;DHT22;4989;48.772;9.154;2023-06-10T16:22:48;29.90;49.20
9901;DHT22;4989;48.772;9.154;2023-06-10T16:27:51;30.00;47.10
9901;DHT22;4989;48.772;9.154;2023-06-10T16:32:53;29.90;48.50
9901;DHT22;4989;48.772;9.154;2023-06-10T16:37:55;29.90;49.50
9901;DHT22;4989;48.772;9.154;2023-06-10T16:43:00;30.00;49.10
9901;DHT22;4989;48.772;9.154;2023-06-10T16:48:02;29.90;47.50
9901;DHT22;4989;48.772;9.154;2023-06-10T16:53:04;30.10;48.30
9901;DHT22;4989;48.772;9.154;2023-06-10T16:58:07;30.10;49.90
9901;DHT22;4989;48.772;9.154;2023-06-10T17:03:09;30.00;46.60
9901;DHT22;4989;48.772;9.154;2023-06-10T17:08:12;30.00;46.60
9901;DHT22;4989;48.772;9.154;2023-06-10T17:13:14;30.10;46.90
9901;DHT22;4989;48.772;9.154;2023-06-10T17:18:16;30.00;49.90
9901;DHT22;4989;48.772;9.154;2023-06-10T17:23:19;29.90;50.60
9901;DHT22;4989;48.772;9.154;2023-06-10T17:28:21;29.80;46.80
9901;DHT22;4989;48.772;9.154;2023-06-10T17:33:23;29.90;49.40
9901;DHT22;4989;48.772;9.154;2023-06-10T17:38:26;29.70;50.20
9901;DHT22;4989;48.772;9.154;2023-06-10T17:43:28;29.70;48.40
9901;DHT22;4989;48.772;9.154;2023-06-10T17:48:31;29.80;47.50
9901;DHT22;4989;48.772;9.154;2023-06-10T17:53:33;29.60;49.40
9901;DHT22;4989;48.772;9.154;2023-06-10T17:58:35;29.50;48.30
9901;DHT22;4989;48.772;9.154;2023-06-10T18:03:38;29.40;48.10
9901;DHT22;4989;48.772;9.154;2023-06-10T18:08:40;29.30;51.30
9901;DHT22;4989;48.772;9.154;2023-06-10T18:13:42;29.00;48.40
9901;DHT22;4989;48.772;9.154;2023-06-10T18:18:47;29.00;50.10
9901;DHT22;4989;48.772;9.154;2023-06-10T18:23:49;28.70;51.70
9901;DHT22;4989;48.772;9.154;2023-06-10T18:28:52;28.80;51.00
9901;DHT22;4989;48.772;9.154;2023-06-10T18:33:54;28.80;48.80
9901;DHT22;4989;48.772;9.154;2023-06-10T18:38:56;28.90;49.40
9901;DHT22;4989;48.772;9.154;2023-06-10T18:43:58;28.90;49.00
9901;DHT22;4989;48.772;9.154;2023-06-10T18:49:04;28.80;50.10
9901;DHT22;4989;48.772;9.154;2023-06-10T18:54:06;28.70;50.60
9901;DHT22;4989;48.772;9.154;2023-06-10T18:59:09;28.50;49.40
9901;DHT22;4989;48.772;9.154;2023-06-10T19:04:11;28.40;49.00
9901;DHT22;4989;48.772;9.154;2023-06-10T19:09:13;28.40;49.50
9901;DHT22;4989;48.772;9.154;2023-06-10T19:14:15;28.40;49.20
9901;DHT22;4989;48.772;9.154;2023-06-10T19:19:17;28.40;50.80
9901;DHT22;4989;48.772;9.154;2023-06-10T19:24:20;28.30;51.90
9901;DHT22;4989;48.772;9.154;2023-06-10T19:29:22;28.20;51.20
9901;DHT22;4989;48.772;9.154;2023-06-10T19:34:25;28.10;54.20
9901;DHT22;4989;48.772;9.154;2023-06-10T19:39:28;28.00;52.90
9901;DHT22;4989;48.772;9.154;2023-06-10T19:44:30;28.10;50.80
9901;DHT22;4989;48.772;9.154;2023-06-10T19:49:33;28.10;52.60
9901;DHT22;4989;48.772;9.154;2023-06-10T19:54:35;28.00;51.00
9901;DHT22;4989;48.772;9.154;2023-06-10T19:59:37;28.00;51.70
9901;DHT22;4989;48.772;9.154;2023-06-10T20:04:40;28.00;52.90
9901;DHT22;4989;48.772;9.154;2023-06-10T20:09:42;27.90;52.60
9901;DHT22;4989;48.772;9.154;2023-06-10T20:14:45;27.90;53.40
9901;DHT22;4989;48.772;9.154;2023-06-10T20:19:47;27.80;51.90
9901;DHT22;4989;48.772;9.154;2023-06-10T20:24:54;27.70;51.60
9901;DHT22;4989;48.772;9.154;2023-06-10T20:29:56;27.80;51.40
9901;DHT22;4989;48.772;9.154;2023-06-10T20:34:59;27.80;51.50
9901;DHT22;4989;48.772;9.154;2023-06-10T20:40:01;27.50;51.90
9901;DHT22;4989;48.772;9.154;2023-06-10T20:45:07;27.50;52.30
9901;DHT22;4989;48.772;9.154;2023-06-10T20:50:10;27.60;52.00
9901;DHT22;4989;48.772;9.154;2023-06-10T20:55:12;27.50;52.70
9901;DHT22;4989;48.772;9.154;2023-06-10T21:00:15;27.40;52.80
9901;DHT22;4989;48.772;9.154;2023-06-10T21:05:17;27.10;53.60
9901;DHT22;4989;48.772;9.154;2023-06-10T21:10:19;27.00;53.60
9901;DHT22;4989;48.772;9.154;2023-06-10T21:15:22;27.00;53.60
9901;DHT22;4989;48.772;9.154;2023-06-10T21:20:24;27.00;54.00
9901;DHT22;4989;48.772;9.154;2023-06-10T21:25:26;26.90;54.10
9901;DHT22;4989;48.772;9.154;2023-06-10T21:30:29;26.90;53.90
9901;DHT22;4989;48.772;9.154;2023-06-10T21:35:31;26.90;54.30
9901;DHT22;4989;48.772;9.154;2023-06-10T21:40:34;26.90;54.50
9901;DHT22;4989;48.772;9.154;2023-06-10T21:45:36;26.70;55.90
9901;DHT22;4989;48.772;9.154;2023-06-10T21:50:38;26.70;56.40
9901;DHT22;4989;48.772;9.154;2023-06-10T21:55:40;26.70;55.00
9901;DHT22;4989;48.772;9.154;2023-06-10T22:00:42;26.70;55.10
9901;DHT22;4989;48.772;9.154;2023-06-10T22:05:45;26.60;55.40
9901;DHT22;4989;48.772;9.154;2023-06-10T22:10:47;26.50;55.60
9901;DHT22;4989;48.772;9.154;2023-06-10T22:15:50;26.60;55.70
9901;DHT22;4989;48.772;9.154;2023-06-10T22:20:52;26.60;55.60
9901;DHT22;4989;48.772;9.154;2023-06-10T22:25:54;26.60;56.10
9901;DHT22;4989;48.772;9.154;2023-06-10T22:30:56;26.50;56.20
9901;DHT22;4989;48.772;9.154;2023-06-10T22:35:59;26.40;56.50
9901;DHT22;4989;48.772;9.154;2023-06-10T22:41:01;26.40;56.70
9901;DHT22;4989;48.772;9.154;2023-06-10T22:46:04;26.30;57.30
9901;DHT22;4989;48.772;9.154;2023-06-10T22:51:06;26.30;56.80
9901;DHT22;4989;48.772;9.154;2023-06-10T22:56:09;26.30;56.90
9901;DHT22;4989;48.772;9.154;2023-06-10T23:01:11;26.20;58.60
9901;DHT22;4989;48.772;9.154;2023-06-10T23:06:13;26.20;57.20
9901;DHT22;4989;48.772;9.154;2023-06-10T23:11:16;26.20;57.10
9901;DHT22;4989;48.772;9.154;2023-06-10T23:16:19;26.00;57.30
9901;DHT22;4989;48.772;9.154;2023-06-10T23:21:21;25.60;59.40
9901;DHT22;4989;48.772;9.154;2023-06-10T23:26:23;25.70;58.10
9901;DHT22;4989;48.772;9.154;2023-06-10T23:31:25;25.80;58.10
9901;DHT22;4989;48.772;9.154;2023-06-10T23:36:28;25.70;58.20
9901;DHT22;4989;48.772;9.154;2023-06-10T23:41:30;25.70;58.40
9901;DHT22;4989;48.772;9.154;2023-06-10T23:46:36;25.70;58.40
9901;DHT22;4989;48.772;9.154;2023-06-10T23:51:39;25.80;58.40
9901;DHT22;4989;48.772;9.154;2023-06-10T23:56:41;25.70;59.60
